Nearby METAR Reports

 

LFLC - Clermont/Aulnat, France
Distance from station: S 1mi, 2km
Updated: Thu, 25-Apr-2019 4:00am CEST
Light rain, Thunderstorm
Light rain, Thunderstorm
 Wind from S
Wind: S 15 mph , 24 km/h
Temperature: 54°F , 12°C
Dew Point: 45°F , 7°C
Humidity: 72%
Barometer: 29.62 inHg , 1003 hPa
Summary: Light Rain
Clouds: Thunderstorm
Visibility: 6 miles , 10 km
Cloud details: Partly Cloudy 4400 ft
Mostly Cloudy 5600 ft
Overcast 7600 ft
2019/04/25 02:00 LFLC 250200Z AUTO 18013KT 9999 -RA SCT044/// BKN056/// OVC076/// ///TCU 12/07 Q1003 TEMPO 18025G44KT BECMG NSC
LFMH - St Etienne/Bouth, France
Distance from station: ESE 57mi, 92km
Updated: Thu, 25-Apr-2019 4:00am CEST
Overcast
Overcast
 Wind from S
Wind: S 24 mph , 39 km/h, Gust: 40 mph , 65 km/h
Temperature: 55°F , 13°C
Dew Point: 39°F , 4°C
Humidity: 55%
Barometer: 29.71 inHg , 1006 hPa
Clouds: Overcast
Visibility: 6 miles , 10 km
Cloud details: Overcast 4000 ft
2019/04/25 02:00 LFMH 250200Z AUTO 18021G35KT 130V220 9999 OVC040 13/04 Q1006
 
LFLN - Saint Yan, France
Distance from station: NE 60mi, 96km
Updated: Thu, 25-Apr-2019 4:00am CEST
Clear
Clear
 Wind from SSE
Wind: SSE 18 mph , 30 km/h
Temperature: 57°F , 14°C
Dew Point: 41°F , 5°C
Humidity: 55%
Barometer: 29.68 inHg , 1005 hPa
Summary: Clear
Visibility: greater than 7 miles , 10 km
2019/04/25 02:00 LFLN 250200Z AUTO 15016KT CAVOK 14/05 Q1005
LFLW - Aurillac (aut), France
Distance from station: SSW 72mi, 116km
Updated: Wed, 24-Apr-2019 11:30am CEST
NOT Current
Light rain, Thunderstorm
Light rain, Thunderstorm
 Wind from E
Wind: E 12 mph , 19 km/h
Temperature: 39°F , 4°C
Wind Chill: 32°F , 0°C
Dew Point: 36°F , 2°C
Humidity: 87%
Barometer: 29.65 inHg , 1004 hPa
Summary: Light Rain
Clouds: Thunderstorm
Visibility: 6 miles , 10 km
Cloud details: Few Clouds 2200 ft
Mostly Cloudy 2700 ft
Mostly Cloudy 3500 ft
2019/04/24 09:30 LFLW 240930Z AUTO 10010KT 9999 -RA FEW022/// BKN027/// BKN035/// ///CB 04/02 Q1004 TEMPO 4000 +RA BR BKN008 SCT013TCU
 
LFQG - Nevers/Fourchamb, France
Distance from station: N 84mi, 135km
Updated: Wed, 24-Apr-2019 11:30am CEST
NOT Current
Light rain, Thunderstorm
Light rain, Thunderstorm
 Wind from SSE
Wind: SSE 9 mph , 15 km/h
Temperature: 54°F , 12°C
Dew Point: 52°F , 11°C
Humidity: 94%
Barometer: 29.53 inHg , 1000 hPa
Summary: Light Rain
Clouds: Thunderstorm
Visibility: 6 miles , 10 km
Cloud details: Few Clouds 2500 ft
Mostly Cloudy 5800 ft
Overcast 7000 ft
2019/04/24 09:30 LFQG 240930Z AUTO 16008KT 130V190 9999 -RA FEW025/// BKN058/// OVC070/// ///TCU 12/11 Q1000
LFLY - Lyon/Bron, France
Distance from station: E 86mi, 138km
Updated: Thu, 25-Apr-2019 4:00am CEST
Clear
Clear
 Wind from S
Wind: S 10 mph , 17 km/h, Gust: 23 mph , 37 km/h
Temperature: 55°F , 13°C
Dew Point: 37°F , 3°C
Humidity: 51%
Barometer: 29.77 inHg , 1008 hPa
Summary: Clear
Visibility: greater than 7 miles , 10 km
2019/04/25 02:00 LFLY 250200Z AUTO 18009G20KT CAVOK 13/03 Q1008 TEMPO 18020G37KT
 
LFOA - Avord (fafb), France
Distance from station: NNW 90mi, 145km
Updated: Thu, 25-Apr-2019 4:00am CEST
Clear
Clear
 Wind from SE
Wind: SE 10 mph , 17 km/h
Temperature: 54°F , 12°C
Dew Point: 45°F , 7°C
Humidity: 72%
Barometer: 29.56 inHg , 1001 hPa
Summary: Clear
Visibility: greater than 7 miles , 10 km
2019/04/25 02:00 LFOA 250200Z AUTO 14009KT CAVOK 12/07 Q1001
LFLL - Lyon/Satolas, France
Distance from station: E 92mi, 147km
Updated: Thu, 25-Apr-2019 4:00am CEST
Clear
Clear
 Wind from S
Wind: S 15 mph , 24 km/h
Temperature: 57°F , 14°C
Dew Point: 36°F , 2°C
Humidity: 44%
Barometer: 29.74 inHg , 1007 hPa
Summary: Clear
Visibility: greater than 7 miles , 10 km
2019/04/25 02:00 LFLL 250200Z 17013KT 130V200 CAVOK 14/02 Q1007 TEMPO 18020G35KT
 
LFBL - Limoges/Bellegar, France
Distance from station: W 97mi, 155km
Updated: Thu, 25-Apr-2019 4:00am CEST
Overcast
Overcast
 Wind from SSE
Wind: SSE 14 mph , 22 km/h
Temperature: 50°F , 10°C
Wind Chill: 45°F , 7°C
Dew Point: 46°F , 8°C
Humidity: 88%
Barometer: 29.56 inHg , 1001 hPa
Clouds: Overcast
Visibility: 6 miles , 10 km
Cloud details: Few Clouds 1300 ft
Mostly Cloudy 4300 ft
Overcast 5400 ft
2019/04/25 02:00 LFBL 250200Z AUTO 16012KT 9999 FEW013 BKN043 OVC054 10/08 Q1001 TEMPO RA BKN007 SCT030TCU BECMG 22010KT
LFSL - Brive/Souillac, France
Distance from station: WSW 97mi, 156km
Updated: Thu, 25-Apr-2019 4:00am CEST
Light rain, Thunderstorm
Light rain, Thunderstorm
 Wind from ESE
Wind: ESE 8 mph , 13 km/h
Temperature: 50°F , 10°C
Wind Chill: 47°F , 8°C
Dew Point: 50°F , 10°C
Humidity: 100%
Barometer: 29.59 inHg , 1002 hPa
Summary: Light Rain
Clouds: Thunderstorm
Visibility: 6 miles , 10 km
Cloud details: Few Clouds 2500 ft
Mostly Cloudy 5600 ft
Mostly Cloudy 7200 ft
2019/04/25 02:00 LFSL 250200Z AUTO 12007KT 9999 -RA FEW025/// BKN056/// BKN072/// ///TCU 10/10 Q1002
 
LFLX - Chateauroux/Deol, France
Distance from station: NW 101mi, 163km
Updated: Thu, 25-Apr-2019 4:00am CEST
Clear
Clear
 Wind from SSE
Wind: SSE 10 mph , 17 km/h
Temperature: 54°F , 12°C
Dew Point: 45°F , 7°C
Humidity: 72%
Barometer: 29.53 inHg , 1000 hPa
Summary: Clear
Visibility: greater than 7 miles , 10 km
2019/04/25 02:00 LFLX 250200Z AUTO 16009KT CAVOK 12/07 Q1000 TEMPO 2000 RA BKN012 BKN025CB
LFCR - Rodez/Marcillac, France
Distance from station: SSW 103mi, 165km
Updated: Thu, 25-Apr-2019 4:00am CEST
Clear
Clear
 Wind from SE
Wind: SE 22 mph , 35 km/h
Temperature: 52°F , 11°C
Dew Point: 43°F , 6°C
Humidity: 72%
Barometer: 29.65 inHg , 1004 hPa
Summary: Clear
Visibility: greater than 7 miles , 10 km
2019/04/25 02:00 LFCR 250200Z AUTO 14019KT CAVOK 11/06 Q1004 BECMG 26010KT RA SCT008 BKN013 BKN030
 
LFLU - Valence-Chabeuil, France
Distance from station: ESE 107mi, 172km
Updated: Wed, 24-Apr-2019 8:00pm CEST
NOT Current
Clear
Clear
 Wind from SSW
Wind: SSW 24 mph , 39 km/h
Temperature: 59°F , 15°C
Dew Point: 39°F , 4°C
Humidity: 48%
Barometer: 29.74 inHg , 1007 hPa
Summary: Clear
Visibility: greater than 7 miles , 10 km
2019/04/24 18:00 LFLU 241800Z AUTO 20021KT CAVOK 15/04 Q1007
LFLS - Grenoble/St. Geo, France
Distance from station: ESE 108mi, 174km
Updated: Thu, 25-Apr-2019 4:00am CEST
Overcast
Overcast
 Wind from SSE
Wind: SSE 16 mph , 26 km/h
Temperature: 57°F , 14°C
Dew Point: 34°F , 1°C
Humidity: 41%
Barometer: 29.8 inHg , 1009 hPa
Clouds: Overcast
Visibility: 6 miles , 10 km
Cloud details: Overcast 6400 ft
2019/04/25 02:00 LFLS 250200Z AUTO 16014KT 130V190 9999 OVC064 14/01 Q1009
 
LFYR - Romorantin/Pruni, France
Distance from station: NW 128mi, 205km
Updated: Thu, 25-Apr-2019 4:00am CEST
Thunderstorm
Thunderstorm
 Wind from SE
Wind: SE 6 mph , 9 km/h
Temperature: 54°F , 12°C
Dew Point: 48°F , 9°C
Humidity: 82%
Barometer: 29.5 inHg , 999 hPa
Clouds: Thunderstorm
Visibility: 6 miles , 10 km
2019/04/25 02:00 LFYR 250200Z AUTO 13005KT 9999 ///TCU 12/09 Q0999
LFLB - Chambery/Aix Bai, France
Distance from station: E 131mi, 210km
Updated: Thu, 25-Apr-2019 4:00am CEST
Clear
Clear
 Wind from WSW
Wind: WSW 10 mph , 17 km/h
Temperature: 57°F , 14°C
Dew Point: 32°F , 0°C
Humidity: 39%
Barometer: 29.77 inHg , 1008 hPa
Summary: Clear
Visibility: greater than 7 miles , 10 km
2019/04/25 02:00 LFLB 250200Z AUTO 24009KT 190V280 CAVOK 14/M00 Q1008 NOSIG
 
LFSD - Dijon/Longvic(Fa, France
Distance from station: NE 136mi, 219km
Updated: Thu, 25-Apr-2019 4:00am CEST
Light rain, Thunderstorm
Light rain, Thunderstorm
 Wind from S
Wind: S 23 mph , 37 km/h, Gust: 36 mph , 57 km/h
Temperature: 54°F , 12°C
Dew Point: 43°F , 6°C
Humidity: 67%
Barometer: 29.74 inHg , 1007 hPa
Summary: Light Rain
Clouds: Thunderstorm
Visibility: 6 miles , 10 km
2019/04/25 02:00 LFSD 250200Z AUTO 19020G31KT 9999 -RA ///TCU 12/06 Q1007
LFGJ - Dole Tavaux, France
Distance from station: NE 139mi, 223km
Updated: Thu, 25-Apr-2019 4:00am CEST
Thunderstorm
Thunderstorm
 Wind from WSW
Wind: WSW 12 mph , 19 km/h
Temperature: 55°F , 13°C
Dew Point: 37°F , 3°C
Humidity: 51%
Barometer: 29.77 inHg , 1008 hPa
Clouds: Thunderstorm
Visibility: 6 miles , 10 km
2019/04/25 02:00 LFGJ 250200Z AUTO 24010KT 9999 ///TCU 13/03 Q1008
 
LFLP - Annecy/Meythet, France
Distance from station: E 141mi, 226km
Updated: Thu, 25-Apr-2019 4:00am CEST
Clear
Clear
 Wind from NE
Wind: NE 7 mph , 11 km/h
Temperature: 41°F , 5°C
Wind Chill: 36°F , 2°C
Dew Point: 39°F , 4°C
Humidity: 93%
Barometer: 29.77 inHg , 1008 hPa
Summary: Clear
Visibility: greater than 7 miles , 10 km
2019/04/25 02:00 LFLP 250200Z AUTO 05006KT CAVOK 05/04 Q1008
LFBU - Brie Champniers, France
Distance from station: W 142mi, 229km
Updated: Thu, 25-Apr-2019 4:00am CEST
Thunderstorm
Thunderstorm
 Wind from S
Wind: S 13 mph , 20 km/h
Temperature: 54°F , 12°C
Dew Point: 48°F , 9°C
Humidity: 82%
Barometer: 29.53 inHg , 1000 hPa
Clouds: Thunderstorm
Visibility: 6 miles , 10 km
Cloud details: Mostly Cloudy 2600 ft
Mostly Cloudy 3700 ft
Overcast 4900 ft
2019/04/25 02:00 LFBU 250200Z AUTO 19011KT 9999 BKN026/// BKN037/// OVC049/// ///CB 12/09 Q1000

Metar display script from Saratoga-Weather.org